createdAt,value
2019-01-26T00:01:10.660Z,8.20
2019-01-26T00:03:58.522Z,7.63
2019-01-26T00:06:46.448Z,8.10
2019-01-26T00:09:33.975Z,8.63
2019-01-26T00:12:22.168Z,8.70
2019-01-26T00:15:10.158Z,7.77
2019-01-26T00:17:58.210Z,8.50
2019-01-26T00:20:46.440Z,7.83
2019-01-26T00:23:34.391Z,8.03
2019-01-26T00:26:22.388Z,8.33
2019-01-26T00:29:10.503Z,7.77
2019-01-26T00:31:58.605Z,6.97
2019-01-26T00:34:46.508Z,7.23
2019-01-26T00:37:34.736Z,8.10
2019-01-26T00:40:22.728Z,8.80
2019-01-26T00:43:10.516Z,7.83
2019-01-26T00:45:58.190Z,7.17
2019-01-26T00:48:46.283Z,8.07
2019-01-26T00:51:34.275Z,7.43
2019-01-26T00:54:22.303Z,8.03
2019-01-26T00:57:10.203Z,8.83
2019-01-26T00:59:58.303Z,8.63
2019-01-26T01:02:46.232Z,8.90
2019-01-26T01:05:33.751Z,9.20
2019-01-26T01:08:21.590Z,8.30
2019-01-26T01:11:09.666Z,9.57
2019-01-26T01:13:57.708Z,8.97
2019-01-26T01:16:45.798Z,9.60
2019-01-26T01:19:33.410Z,8.67
2019-01-26T01:22:21.593Z,9.17
2019-01-26T01:25:10.011Z,9.30
2019-01-26T01:27:57.757Z,8.33
2019-01-26T01:30:45.782Z,9.43
2019-01-26T01:33:33.777Z,9.10
2019-01-26T01:36:22.052Z,9.53
2019-01-26T01:39:10.088Z,8.20
2019-01-26T01:41:58.082Z,9.10
2019-01-26T01:44:46.174Z,9.10
2019-01-26T01:47:34.186Z,9.10
2019-01-26T01:50:21.954Z,8.70
2019-01-26T01:53:10.094Z,8.47
2019-01-26T01:55:57.940Z,8.70
2019-01-26T01:58:46.253Z,8.73
2019-01-26T02:01:34.381Z,9.20
2019-01-26T02:04:22.591Z,9.37
2019-01-26T02:07:10.849Z,8.73
2019-01-26T02:09:59.124Z,9.40
2019-01-26T02:12:47.116Z,9.27
2019-01-26T02:15:35.066Z,8.60
2019-01-26T02:18:23.348Z,8.40
2019-01-26T02:21:11.946Z,8.13
2019-01-26T02:24:00.009Z,8.73
2019-01-26T02:26:47.696Z,9.47
2019-01-26T02:29:35.590Z,7.53
2019-01-26T02:32:23.655Z,8.20
2019-01-26T02:35:11.385Z,8.90
2019-01-26T02:37:59.387Z,8.63
2019-01-26T02:40:46.998Z,9.33
2019-01-26T02:43:35.338Z,8.40
2019-01-26T02:46:23.099Z,8.60
2019-01-26T02:49:11.252Z,7.77
2019-01-26T02:51:59.357Z,8.37
2019-01-26T02:54:47.367Z,8.87
2019-01-26T02:57:35.379Z,8.43
2019-01-26T03:00:24.476Z,8.63
2019-01-26T03:03:11.970Z,8.20
2019-01-26T03:05:59.934Z,7.90
2019-01-26T03:08:47.818Z,7.70
2019-01-26T03:11:35.488Z,7.73
2019-01-26T03:14:23.571Z,7.57
2019-01-26T03:17:11.584Z,8.50
2019-01-26T03:19:59.156Z,8.43
2019-01-26T03:22:46.711Z,8.67
2019-01-26T03:25:35.206Z,8.83
2019-01-26T03:28:23.041Z,8.67
2019-01-26T03:31:11.310Z,8.77
2019-01-26T03:33:59.275Z,7.83
2019-01-26T03:36:47.397Z,8.37
2019-01-26T03:39:35.734Z,8.53
2019-01-26T03:42:23.946Z,8.27
2019-01-26T03:45:12.477Z,8.43
2019-01-26T03:48:00.406Z,8.27
2019-01-26T03:50:47.984Z,9.07
2019-01-26T03:53:36.139Z,8.43
2019-01-26T03:56:23.991Z,7.97
2019-01-26T03:59:11.823Z,8.27
2019-01-26T04:01:59.778Z,8.57
2019-01-26T04:04:47.793Z,8.40
2019-01-26T04:07:35.283Z,9.40
2019-01-26T04:10:23.399Z,8.67
2019-01-26T04:13:11.339Z,8.63
2019-01-26T04:15:59.453Z,8.47
2019-01-26T04:18:47.407Z,8.67
2019-01-26T04:21:35.337Z,7.90
2019-01-26T04:24:23.272Z,8.83
2019-01-26T04:27:11.204Z,8.30
2019-01-26T04:29:59.290Z,8.80
2019-01-26T04:32:47.075Z,8.60
2019-01-26T04:35:35.228Z,8.70
2019-01-26T04:38:23.356Z,8.80
2019-01-26T04:41:10.877Z,8.30
2019-01-26T04:43:58.746Z,9.30
2019-01-26T04:46:46.744Z,9.20
2019-01-26T04:49:34.599Z,9.23
2019-01-26T04:52:22.373Z,8.63
2019-01-26T04:55:10.045Z,8.50
2019-01-26T04:57:57.675Z,8.63
2019-01-26T05:00:45.644Z,8.63
2019-01-26T05:03:33.428Z,7.53
2019-01-26T05:06:21.298Z,8.27
2019-01-26T05:09:10.170Z,8.13
2019-01-26T05:11:57.917Z,8.27
2019-01-26T05:14:45.773Z,7.83
2019-01-26T05:17:39.197Z,8.63
2019-01-26T05:20:25.380Z,8.17
2019-01-26T05:23:12.778Z,7.40
2019-01-26T05:26:00.837Z,8.40
2019-01-26T05:28:48.349Z,7.67
2019-01-26T05:31:35.869Z,7.87
2019-01-26T05:34:23.723Z,7.63
2019-01-26T05:37:11.507Z,7.97
2019-01-26T05:39:59.683Z,7.80
2019-01-26T05:42:47.546Z,7.90
2019-01-26T05:45:35.696Z,7.37
2019-01-26T05:48:23.440Z,7.10
2019-01-26T05:51:11.492Z,6.30
2019-01-26T05:53:59.360Z,6.87
2019-01-26T05:56:47.411Z,6.97
2019-01-26T05:59:34.998Z,6.97
2019-01-26T06:02:22.846Z,6.97
2019-01-26T06:05:10.829Z,7.30
2019-01-26T06:07:58.441Z,7.03
2019-01-26T06:10:46.353Z,7.23
2019-01-26T06:13:34.208Z,8.03
2019-01-26T06:16:22.433Z,7.20
2019-01-26T06:19:10.832Z,7.80
2019-01-26T06:21:58.731Z,7.23
2019-01-26T06:24:47.063Z,8.33
2019-01-26T06:27:35.039Z,7.10
2019-01-26T06:30:24.607Z,7.10
2019-01-26T06:33:12.502Z,7.37
2019-01-26T06:36:00.360Z,7.07
2019-01-26T06:38:48.470Z,7.70
2019-01-26T06:41:36.296Z,6.80
2019-01-26T06:44:24.103Z,7.73
2019-01-26T06:47:11.993Z,6.50
2019-01-26T06:49:59.647Z,7.40
2019-01-26T06:52:47.894Z,6.37
2019-01-26T06:55:36.038Z,6.77
2019-01-26T06:58:23.837Z,7.07
2019-01-26T07:01:11.492Z,6.90
2019-01-26T07:03:59.773Z,5.97
2019-01-26T07:07:05.390Z,6.80
2019-01-26T07:09:53.672Z,6.47
2019-01-26T07:12:41.535Z,6.90
2019-01-26T07:15:29.575Z,6.53
2019-01-26T07:18:17.515Z,7.93
2019-01-26T07:21:05.365Z,6.87
2019-01-26T07:23:53.383Z,6.67
2019-01-26T07:26:41.284Z,7.03
2019-01-26T07:29:28.913Z,7.07
2019-01-26T07:32:16.914Z,6.53
2019-01-26T07:35:06.082Z,6.07
2019-01-26T07:37:53.991Z,6.87
2019-01-26T07:40:42.089Z,6.97
2019-01-26T07:43:29.968Z,6.63
2019-01-26T07:46:17.685Z,6.07
2019-01-26T07:49:05.557Z,6.97
2019-01-26T07:51:53.665Z,6.10
2019-01-26T07:54:41.371Z,6.27
2019-01-26T07:57:30.208Z,6.33
2019-01-26T08:00:20.809Z,6.17
2019-01-26T08:03:08.800Z,6.70
2019-01-26T08:05:56.548Z,5.80
2019-01-26T08:08:44.540Z,5.60
2019-01-26T08:11:32.966Z,5.97
2019-01-26T08:14:20.942Z,6.07
2019-01-26T08:17:09.373Z,5.83
2019-01-26T08:19:57.040Z,5.53
2019-01-26T08:22:45.314Z,5.40
2019-01-26T08:25:33.355Z,5.80
2019-01-26T08:28:21.608Z,5.57
2019-01-26T08:31:09.266Z,5.33
2019-01-26T08:33:57.189Z,5.37
2019-01-26T08:36:45.134Z,5.80
2019-01-26T08:39:33.484Z,5.40
2019-01-26T08:42:21.132Z,6.10
2019-01-26T08:45:10.980Z,5.27
2019-01-26T08:47:58.790Z,5.57
2019-01-26T08:50:47.065Z,4.93
2019-01-26T08:53:35.169Z,4.43
2019-01-26T08:56:22.972Z,6.17
2019-01-26T08:59:11.217Z,5.17
2019-01-26T09:02:17.679Z,5.37
2019-01-26T09:05:06.757Z,5.63
2019-01-26T09:07:54.839Z,5.57
2019-01-26T09:10:42.750Z,6.20
2019-01-26T09:13:31.163Z,6.03
2019-01-26T09:16:18.981Z,6.20
2019-01-26T09:19:07.229Z,5.77
2019-01-26T09:21:54.818Z,5.77
2019-01-26T09:24:42.897Z,5.37
2019-01-26T09:27:30.999Z,5.33
2019-01-26T09:30:19.007Z,5.80
2019-01-26T09:33:07.293Z,6.00
2019-01-26T09:35:55.446Z,5.30
2019-01-26T09:38:43.394Z,5.60
2019-01-26T09:41:31.705Z,6.17
2019-01-26T09:44:19.161Z,6.17
2019-01-26T09:47:07.045Z,6.27
2019-01-26T09:49:54.539Z,5.57
2019-01-26T09:52:42.585Z,6.70
2019-01-26T09:55:30.790Z,5.87
2019-01-26T09:58:19.987Z,5.67
2019-01-26T10:01:07.897Z,5.47
2019-01-26T10:03:55.823Z,5.90
2019-01-26T10:06:43.300Z,5.23
2019-01-26T10:09:31.216Z,5.73
2019-01-26T10:12:19.121Z,5.70
2019-01-26T10:15:09.479Z,6.20
2019-01-26T10:17:57.720Z,5.43
2019-01-26T10:20:45.558Z,6.00
2019-01-26T10:23:33.143Z,6.13
2019-01-26T10:26:21.490Z,5.37
2019-01-26T10:29:09.252Z,6.53
2019-01-26T10:31:57.017Z,5.77
2019-01-26T10:34:45.306Z,6.17
2019-01-26T10:37:33.921Z,5.43
2019-01-26T10:40:56.525Z,5.93
2019-01-26T10:43:48.343Z,5.67
2019-01-26T10:46:36.503Z,6.50
2019-01-26T10:49:24.469Z,5.67
2019-01-26T10:52:12.380Z,5.40
2019-01-26T10:55:00.493Z,5.80
2019-01-26T10:57:48.778Z,6.33
2019-01-26T11:00:36.963Z,5.87
2019-01-26T11:03:25.142Z,5.30
2019-01-26T11:06:13.377Z,5.50
2019-01-26T11:09:01.618Z,5.50
2019-01-26T11:11:49.399Z,5.37
2019-01-26T11:14:37.740Z,5.17
2019-01-26T11:17:25.415Z,6.10
2019-01-26T11:20:13.053Z,5.07
2019-01-26T11:23:01.341Z,4.70
2019-01-26T11:25:49.580Z,5.33
2019-01-26T11:28:37.305Z,5.40
2019-01-26T11:31:25.447Z,5.67
2019-01-26T11:34:13.403Z,5.50
2019-01-26T11:37:01.709Z,4.87
2019-01-26T11:39:56.617Z,5.47
2019-01-26T11:42:44.780Z,4.70
2019-01-26T11:46:07.202Z,5.53
2019-01-26T11:48:56.488Z,5.03
2019-01-26T11:52:09.927Z,5.03
2019-01-26T11:55:26.599Z,5.07
2019-01-26T11:58:14.367Z,5.30
2019-01-26T12:01:31.011Z,5.10
2019-01-26T12:04:23.440Z,5.80
2019-01-26T12:07:14.027Z,6.20
2019-01-26T12:10:01.982Z,6.07
2019-01-26T12:12:50.074Z,6.23
2019-01-26T12:15:37.544Z,5.77
2019-01-26T12:18:28.725Z,5.83
2019-01-26T12:21:17.053Z,5.57
2019-01-26T12:24:04.887Z,6.37
2019-01-26T23:45:37.119Z,10.03
2019-01-26T23:48:24.643Z,9.47
2019-01-26T23:51:12.749Z,9.10
2019-01-26T23:54:00.856Z,10.23
2019-01-26T23:56:48.787Z,8.77
2019-01-26T23:59:36.931Z,11.17
